METAR Data
IDs: Format: Raw Decoded Include TAF

Data at: 0533 UTC 24 Sep 2018

KJWN 240515Z AUTO VRB05KT 10SM FEW006 SCT050 BKN065 22/22 A3001 RMK A01
KJWN 240455Z AUTO 09005KT 10SM FEW042 SCT065 BKN075 22/22 A3001 RMK A01 P0001
KJWN 240435Z AUTO 09005KT 8SM FEW008 SCT029 BKN070 22/22 A3002 RMK A01
KJWN 240415Z AUTO 09005KT 10SM BKN008 BKN027 OVC120 22/22 A3002 RMK A01
KJWN 240355Z AUTO 08004KT 9SM FEW008 SCT026 BKN043 22/22 A3002 RMK A01 P0002
KJWN 240335Z AUTO VRB03KT 10SM SCT007 BKN042 OVC110 22/22 A3002 RMK A01
KJWN 240315Z AUTO 12004KT 5SM BR BKN029 BKN048 OVC110 22/22 A3003 RMK A01
KJWN 240255Z AUTO 00000KT 5SM BR SCT007 BKN031 OVC047 22/22 A3003 RMK A01 P0002
KJWN 240235Z AUTO 00000KT 5SM BR BKN006 BKN029 OVC050 22/22 A3003 RMK A01
KJWN 240215Z AUTO 00000KT 6SM BR OVC006 22/22 A3003 RMK A01
KJWN 240155Z AUTO 00000KT 7SM BKN008 BKN028 OVC110 22/22 A3003 RMK A01 P0002
KJWN 240135Z AUTO 08004KT 7SM SCT013 BKN027 OVC110 22/22 A3003 RMK A01
KJWN 240115Z AUTO 07003KT 5SM BR FEW005 OVC013 22/22 A3002 RMK A01
KJWN 240055Z AUTO 00000KT 5SM BR FEW005 BKN015 OVC028 22/22 A3002 RMK A01 P0001
KJWN 240035Z AUTO 00000KT 5SM BR BKN007 BKN021 OVC029 22/22 A3001 RMK A01
KJWN 240015Z AUTO 06004KT 7SM BKN008 BKN075 OVC100 22/22 A3000 RMK A01
KJWN 232355Z AUTO 00000KT 10SM FEW008 SCT080 BKN110 22/22 A3000 RMK A01 P0001
KJWN 232335Z AUTO 10004KT 9SM SCT005 SCT047 BKN065 22/22 A3000 RMK A01
KJWN 232315Z AUTO 00000KT 5SM BR BKN004 OVC008 22/22 A3000 RMK A01
KJWN 232255Z AUTO 08004KT 6SM BR BKN004 BKN035 22/22 A2999 RMK A01 P0005
KJWN 232235Z AUTO 08004KT 3SM BR BKN004 BKN021 BKN034 22/22 A2999 RMK A01
KJWN 232215Z AUTO 08004KT 3SM BR FEW004 BKN037 OVC050 22/22 A3000 RMK A01
KJWN 232155Z AUTO 07004KT 3SM BR SCT040 BKN045 BKN055 22/22 A3000 RMK A01 P0009
KJWN 232135Z AUTO 08003KT 4SM BR SCT039 SCT047 SCT055 22/22 A3000 RMK A01
KJWN 232115Z AUTO 07005KT 4SM BR SCT009 SCT033 BKN039 23/22 A3000 RMK A01
KJWN 232055Z AUTO 00000KT 4SM BR SCT009 BKN015 BKN037 23/22 A3000 RMK A01 P0003
KJWN 232035Z AUTO 00000KT 8SM SCT008 SCT015 BKN033 23/22 A3000 RMK A01
KJWN 232015Z AUTO 00000KT 7SM BKN009 BKN013 BKN035 23/22 A3000 RMK A01
KJWN 231955Z AUTO 00000KT 9SM BKN009 BKN013 23/22 A3000 RMK A01
KJWN 231935Z AUTO 00000KT 9SM BKN010 OVC014 23/22 A3000 RMK A01
KJWN 231915Z AUTO 00000KT 10SM BKN010 OVC013 23/22 A3001 RMK A01
KJWN 231855Z AUTO 00000KT 10SM FEW008 BKN013 BKN095 23/21 A3001 RMK A01
KJWN 231835Z AUTO 00000KT 10SM BKN008 BKN013 BKN023 23/21 A3002 RMK A01
KJWN 231815Z AUTO 00000KT 10SM SCT007 BKN013 BKN023 23/22 A3002 RMK A01
KJWN 231755Z AUTO 00000KT 10SM FEW005 BKN013 OVC065 23/22 A3003 RMK A01 P0001
KJWN 231735Z AUTO 00000KT 7SM FEW005 BKN008 OVC080 22/22 A3004 RMK A01
KJWN 231715Z AUTO 00000KT 7SM BKN005 BKN008 OVC012 22/21 A3004 RMK A01
KJWN 231655Z AUTO 01003KT 8SM OVC004 22/21 A3005 RMK A01 P0002
KJWN 231635Z AUTO 00000KT 7SM OVC004 22/21 A3005 RMK A01
KJWN 231615Z AUTO 00000KT 7SM BKN003 OVC032 22/21 A3005 RMK A01
KJWN 231555Z AUTO 00000KT 3SM BR SCT005 BKN024 OVC032 22/21 A3006 RMK A01 P0013
KJWN 231535Z AUTO 00000KT 2 1/2SM BR BKN006 BKN014 OVC024 21/21 A3006 RMK A01
KJWN 231515Z AUTO 00000KT 3SM BR BKN007 OVC014 21/21 A3006 RMK A01
KJWN 231455Z AUTO 00000KT 3SM BR OVC005 21/21 A3005 RMK A01 P0004
KJWN 231435Z AUTO 00000KT 3SM BR OVC004 21/20 A3005 RMK A01
KJWN 231415Z AUTO 00000KT 6SM BR OVC003 21/20 A3004 RMK A01
KJWN 231355Z AUTO 00000KT 5SM BR OVC003 21/21 A3003 RMK A01 P0001
KJWN 231335Z AUTO 00000KT 6SM BR OVC003 21/20 A3002 RMK A01
KJWN 231315Z AUTO 00000KT 5SM BR OVC003 21/20 A3002 RMK A01
KJWN 231255Z AUTO 00000KT 7SM OVC003 21/20 A3002 RMK A01
KJWN 231235Z AUTO 00000KT 7SM OVC003 20/20 A3001 RMK A01
KJWN 231215Z AUTO 00000KT 5SM BR OVC003 20/20 A3001 RMK A01
KJWN 231155Z AUTO 00000KT 6SM BR OVC004 20/20 A3000 RMK A01 P0001
KJWN 231135Z AUTO 00000KT 6SM BR OVC004 20/20 A3000 RMK A01
KJWN 231115Z AUTO 00000KT 5SM BR OVC004 20/20 A3000 RMK A01
KJWN 231055Z AUTO 00000KT 4SM BR OVC003 20/20 A3000 RMK A01
KJWN 231035Z AUTO 00000KT 4SM BR OVC003 20/20 A2999 RMK A01
KJWN 231015Z AUTO 00000KT 4SM BR OVC003 20/20 A2999 RMK A01
KJWN 230955Z AUTO 00000KT 3SM BR OVC003 20/20 A2999 RMK A01
KJWN 230935Z AUTO 00000KT 4SM BR OVC003 20/20 A2999 RMK A01
KJWN 230915Z AUTO 00000KT 4SM BR OVC003 20/20 A3000 RMK A01
KJWN 230855Z AUTO 00000KT 6SM BR OVC003 20/20 A3000 RMK A01
KJWN 230835Z AUTO 00000KT 4SM BR OVC003 20/20 A3000 RMK A01
KJWN 230815Z AUTO 00000KT 5SM BR OVC003 20/20 A3000 RMK A01
KJWN 230755Z AUTO 00000KT 9SM OVC003 20/20 A3000 RMK A01
KJWN 230735Z AUTO 00000KT 8SM OVC004 20/20 A3001 RMK A01
KJWN 230715Z AUTO 00000KT 10SM OVC004 20/20 A3000 RMK A01
KJWN 230655Z AUTO 00000KT 10SM OVC004 20/20 A3000 RMK A01
KJWN 230635Z AUTO 00000KT 10SM OVC004 20/19 A3000 RMK A01
KJWN 230615Z AUTO 00000KT 10SM OVC004 20/19 A3000 RMK A01
KJWN 230555Z AUTO VRB03KT 10SM OVC004 20/19 A3001 RMK A01
KJWN 230535Z AUTO 08004KT 10SM OVC004 20/19 A3001 RMK A01
KJWN 230515Z AUTO 07004KT 10SM OVC005 20/19 A3002 RMK A01
KJWN 230455Z AUTO 06005KT 10SM OVC006 20/19 A3002 RMK A01
KJWN 230435Z AUTO 05004KT 10SM OVC006 20/19 A3003 RMK A01
KJWN 230415Z AUTO 06004KT 10SM OVC007 20/19 A3003 RMK A01
KJWN 230355Z AUTO VRB05KT 10SM OVC007 20/19 A3004 RMK A01
KJWN 230335Z AUTO 06005KT 10SM OVC005 20/19 A3004 RMK A01
KJWN 230315Z AUTO 06005KT 10SM OVC006 20/19 A3005 RMK A01
KJWN 230255Z AUTO 06004KT 10SM OVC007 20/19 A3005 RMK A01
KJWN 230235Z AUTO 00000KT 10SM BKN008 BKN012 OVC023 20/19 A3006 RMK A01
KJWN 230215Z AUTO 04004KT 10SM BKN007 OVC011 20/19 A3006 RMK A01
KJWN 230155Z AUTO 00000KT 5SM BR BKN008 OVC013 20/19 A3006 RMK A01
KJWN 230135Z AUTO VRB04KT 10SM OVC008 20/19 A3005 RMK A01
KJWN 230115Z AUTO 08004KT 10SM BKN008 BKN043 OVC070 20/19 A3005 RMK A01
KJWN 230055Z AUTO 06007KT 9SM SCT008 BKN032 OVC070 20/19 A3003 RMK A01 P0002
KJWN 230035Z AUTO 06008KT 5SM BR SCT029 BKN050 OVC095 20/19 A3003 RMK A01
KJWN 230015Z AUTO 07004KT 10SM FEW005 BKN060 OVC090 21/19 A3003 RMK A01
KJWN 222355Z AUTO 03007KT 6SM HZ FEW006 BKN065 OVC085 22/19 A3003 RMK A01
KJWN 222335Z AUTO 04008KT 10SM FEW029 BKN095 OVC110 22/18 A3003 RMK A01
KJWN 222315Z AUTO 02009KT 10SM SCT023 BKN031 OVC100 23/18 A3002 RMK A01
KJWN 222255Z AUTO 03009KT 10SM OVC026 23/18 A3004 RMK A01
KJWN 222235Z AUTO 06006KT 10SM OVC029 23/18 A3004 RMK A01
KJWN 222215Z AUTO 04009KT 10SM OVC030 24/18 A3004 RMK A01
KJWN 222155Z AUTO 04009KT 10SM OVC029 24/18 A3003 RMK A01
KJWN 222135Z AUTO 03011KT 10SM OVC029 24/18 A3002 RMK A01
KJWN 222115Z AUTO 03009KT 10SM OVC029 24/18 A3002 RMK A01
KJWN 222055Z AUTO 03009KT 10SM OVC028 24/18 A3002 RMK A01
KJWN 222035Z AUTO 03010KT 10SM OVC026 24/18 A3002 RMK A01
KJWN 222015Z AUTO 04010G15KT 10SM OVC024 24/18 A3002 RMK A01
KJWN 221955Z AUTO 02008KT 10SM OVC022 23/18 A3003 RMK A01
KJWN 221935Z AUTO 02010KT 10SM OVC020 23/17 A3003 RMK A01
KJWN 221915Z AUTO 02007KT 10SM OVC015 22/18 A3005 RMK A01
KJWN 221855Z AUTO 01011KT 10SM OVC013 22/18 A3006 RMK A01
KJWN 221835Z AUTO 34011KT 10SM OVC013 23/19 A3007 RMK A01
KJWN 221815Z AUTO 36012KT 10SM OVC013 22/19 A3008 RMK A01
KJWN 221755Z AUTO 35014KT 10SM OVC014 23/19 A3008 RMK A01
KJWN 221735Z AUTO 35013KT 10SM OVC017 24/19 A3008 RMK A01